Impacts METAR Board
IDs:

KLGA - New York/La Guardia, NY, US

Updated at: 0800 UTC 23 Oct 2018
Potential Impact None Slight Moderate High
Time 22/20Z 22/21Z 22/22Z 22/23Z 23/00Z 23/01Z 23/02Z 23/03Z 23/04Z 23/05Z 23/06Z 23/07Z 23/08Z
Temp51 52 52 51 51 51 50 49 48 49 47 47 47
Dewpt30 30 33 36 36 35 36 35 36 36 36 38 40
Altim30.17 30.17 30.17 30.17 30.17 30.18 30.18 30.17 30.17 30.16 30.15 30.13 30.12
VIS10 10 10 10 10 10 10 10 10 10 10 10 10
CIG110 100 95 250 250 250 250 220 250 75 80 90 100
CoverBKNBKNBKNBKNBKNBKNBKNOVCBKNOVCOVCOVCOVC
FltCatVFRVFRVFRVFRVFRVFRVFRVFRVFRVFRVFRVFRVFR
WX--------------------------
WDir230230200160170180210220200210200180200
WSpd7 8 8 7 5 6 5 6 5 6 7 5 6
WGst-- -- -- -- -- -- -- -- -- -- -- -- --
Raw hourly METARs
KLGA 221951Z 23007KT 10SM FEW046 BKN110 11/M01 A3017 RMK AO2 SLP217 T01061011
KLGA 222051Z 23008KT 10SM FEW046 BKN100 11/M01 A3017 RMK AO2 SLP215 T01111011 56012
KLGA 222151Z 20008KT 10SM FEW045 BKN095 BKN250 11/01 A3017 RMK AO2 SLP214 T01110006
KLGA 222251Z 16007KT 10SM FEW045 SCT090 BKN250 11/02 A3017 RMK AO2 SLP216 T01060022
KLGA 222351Z 17005KT 10SM FEW045 FEW090 BKN250 11/02 A3017 RMK AO2 SLP217 T01060022 10189 20106 53002
KLGA 230051Z 18006KT 10SM FEW090 BKN250 11/02 A3018 RMK AO2 SLP219 T01060017
KLGA 230151Z 21005KT 10SM FEW090 BKN250 10/02 A3018 RMK AO2 SLP218 T01000022 $
KLGA 230251Z 22006KT 10SM BKN220 OVC250 09/02 A3017 RMK AO2 SLP218 T00940017 50001 $
KLGA 230351Z 20005KT 10SM SCT080 SCT220 BKN250 09/02 A3017 RMK AO2 SLP217 T00890022 $
KLGA 230451Z COR 21006KT 10SM OVC075 09/02 A3016 RMK AO2 SLP214 T00940022 401110056 $
KLGA 230551Z COR 20007KT 10SM BKN080 OVC095 08/02 A3015 RMK AO2 SLP208 T00830022 10106 20083 58010 $
KLGA 230651Z 18005KT 10SM SCT075 OVC090 08/03 A3013 RMK AO2 SLP201 T00830033 $
KLGA 230751Z 20006KT 10SM OVC100 08/04 A3012 RMK AO2 SLP198 T00830044 $



Page loaded:  08:07 UTC  |   01:07 AM Pacific  |   02:07 AM Mountain  |   03:07 AM Central  |   04:07 AM Eastern

 

ADVISORIES

FORECASTS

FORECASTS

OBSERVATIONS

USER TOOLS

ABOUT US